Meteo Giornale » Osservazioni meteo Stati Uniti (USA) » Warren Air Base
ore: 11:45 - Osservazioni Meteo Warren Air Base
Lat. 41° 8' N Lon. 104° 52' W Alt. 1878 metri s.l.m.
27 °C
Poco Nuvoloso
Temp. 24 Ore
14 °C
29 °C
Ovest
27.8 Km/h
Dew point 6 °C
Umidità 26 %
Visibilità 10 Km
Il sole sorge alle ore 06:26
Il sole tramonta alle ore 19:32
| Data e Ora | Cielo e Fenomeni | T °C | DP °C | Um. % | Pres. hPa | Vis. km | Vento km/h | |
|---|---|---|---|---|---|---|---|---|
| Oggi h: 11:45 | Poco Nuvoloso | 27 | 6 | 26 | 1021 | 10 | O 27.8 | |
| Oggi h: 11:01 | Poco Nuvoloso | 25 | 8 | 33 | 1021 | 10 | SO 25.9 | |
| Oggi h: 10:55 | Poco Nuvoloso | 25 | 7 | 31 | 1021 | 10 | O/SO 22.2 | |
| Oggi h: 09:55 | Sereno | 21 | 9 | 46 | 1021 | 10 | O 11.1 | |
| Oggi h: 08:55 | Sereno | 20 | 10 | 52 | 1022 | 10 | O/NO 14.8 | |
| Oggi h: 07:55 | Coperto | 17 | 11 | 67 | 1022 | 10 | O/SO 9.3 | |
| Oggi h: 06:55 | Molto Nuvoloso | 14 | 11 | 82 | 1021 | 10 | N 0 | |
| Oggi h: 05:55 | Nuvoloso | 14 | 11 | 82 | 1021 | 10 | N 5.5 | |
| Oggi h: 04:55 | Molto Nuvoloso | 15 | 12 | 82 | 1020 | 10 | N 0 | |
| Oggi h: 03:55 | Sereno | 15 | 12 | 82 | 1021 | 10 | N 0 | |
| Oggi h: 02:55 | Coperto | 17 | 12 | 72 | 1021 | 10 | S/SO 11.1 | |
| Oggi h: 02:06 | Coperto | 17 | 12 | 72 | 1022 | 10 | S/SE 9.3 | |
| Oggi h: 01:55 | Pioggia | 17 | 12 | 72 | 1022 | 10 | S 13 | |
| Oggi h: 01:53 | Pioggia | 17 | 12 | 72 | 1022 | 10 | S 13 | |
| Oggi h: 00:55 | Coperto | 17 | 10 | 63 | 1021 | 10 | S 11.1 | |
| Ieri h: 23:55 | Coperto | 19 | 10 | 55 | 1022 | 10 | O 11.1 | |
| Ieri h: 22:55 | Coperto | 19 | 10 | 55 | 1022 | 10 | O 20.3 | |
| Ieri h: 21:55 | Coperto | 20 | 9 | 49 | 1022 | 10 | O 11.1 | |
| Ieri h: 20:55 | Coperto | 22 | 8 | 40 | 1022 | 10 | SO 24 | |
| Ieri h: 19:55 | Coperto | 22 | 9 | 43 | 1021 | 10 | SO 25.9 | |
| Ieri h: 18:55 | Coperto | 24 | 7 | 33 | 1021 | 10 | S 13 | |
| Ieri h: 17:55 | Nuvoloso | 26 | 7 | 29 | 1021 | 10 | N 5.5 | |
| Ieri h: 16:55 | Coperto | 27 | 7 | 28 | 1021 | 10 | S 11.1 | |
| Ieri h: 16:04 | Coperto | 27 | 6 | 26 | 1020 | 10 | E/SE 20.3 | |
| Ieri h: 15:55 | Molto Nuvoloso | 28 | 5 | 23 | 1021 | 10 | O/NO 9.3 | |
| Ieri h: 14:55 | Poco Nuvoloso | 28 | 4 | 21 | 1021 | 10 | O 29.6 | |
| Ieri h: 13:55 | Nuvoloso | 29 | 6 | 23 | 1022 | 10 | O 13 | |
| Ieri h: 12:55 | Sereno | 27 | 5 | 24 | 1023 | 10 | O 11.1 | |



